White Creek, New York
Current Conditions -  °F | °C
As of 9:54 PM on Wednesday 22 Oct 2014 (Local Time) from KDDH Reporting Station
Overcast Overcast  
Wind Chill: 10°   Ceiling: 1900
Heat Index: 10°   Visibility: 10mi
Dew Point:   Wind: 12mph
Humidity: 80%   Direction: 10°N
Pressure: 29.94"   Gusts: 22mph
Location:  42.9693°N, 73.3467°W
Report Text: KDDH 230154Z AUTO 01010G19KT 10SM OVC019 10/07 A2994 RMK AO2 SLP140 T01000067
Loading
Personal Weather Stations






























Interactive Weather Map
Tropical Storm Tracking
New forecast layout! Learn more

10-Day Weather Forecast

Advertisements
Track Severe Weather on mobile